createdAt,value
2023-05-19T00:00:21.477Z,85.40
2023-05-19T00:02:51.045Z,85.33
2023-05-19T00:05:20.451Z,85.31
2023-05-19T00:07:51.259Z,85.61
2023-05-19T00:10:20.325Z,85.82
2023-05-19T00:12:49.238Z,86.06
2023-05-19T00:15:19.565Z,85.88
2023-05-19T00:17:48.804Z,85.91
2023-05-19T00:20:17.181Z,86.55
2023-05-19T00:22:45.443Z,86.58
2023-05-19T00:25:13.582Z,87.34
2023-05-19T00:27:41.580Z,87.80
2023-05-19T00:30:10.771Z,88.19
2023-05-19T00:32:40.806Z,89.13
2023-05-19T00:35:12.133Z,89.40
2023-05-19T00:37:40.391Z,89.54
2023-05-19T00:40:09.853Z,90.25
2023-05-19T00:42:40.290Z,90.79
2023-05-19T00:45:09.469Z,90.82
2023-05-19T00:47:37.567Z,90.58
2023-05-19T00:50:07.827Z,91.03
2023-05-19T00:52:36.273Z,91.60
2023-05-19T00:55:08.116Z,91.52
2023-05-19T00:59:02.674Z,91.63
2023-05-19T01:01:32.427Z,92.12
2023-05-19T01:04:02.228Z,91.47
2023-05-19T01:06:30.724Z,91.26
2023-05-19T01:08:59.677Z,91.23
2023-05-19T01:11:51.119Z,91.56
2023-05-19T01:14:22.305Z,91.72
2023-05-19T01:17:16.327Z,91.27
2023-05-19T01:19:52.077Z,91.68
2023-05-19T01:22:33.464Z,91.50
2023-05-19T01:25:34.677Z,91.26
2023-05-19T01:28:49.495Z,91.14
2023-05-19T01:31:23.805Z,91.55
2023-05-19T01:33:55.044Z,91.93
2023-05-19T01:36:26.570Z,92.40
2023-05-19T01:38:58.288Z,92.24
2023-05-19T01:41:28.504Z,92.03
2023-05-19T01:43:58.457Z,92.59
2023-05-19T01:46:28.563Z,92.61
2023-05-19T01:48:57.209Z,92.61
2023-05-19T01:51:25.455Z,92.94
2023-05-19T01:53:56.397Z,92.55
2023-05-19T01:56:33.588Z,92.82
2023-05-19T01:59:10.416Z,92.90
2023-05-19T02:01:52.922Z,93.27
2023-05-19T02:04:39.130Z,93.62
2023-05-19T02:07:23.806Z,93.43
2023-05-19T02:09:57.065Z,93.93
2023-05-19T02:12:29.867Z,94.38
2023-05-19T02:15:05.956Z,94.74
2023-05-19T02:17:40.352Z,95.43
2023-05-19T02:20:12.148Z,95.98
2023-05-19T02:22:41.127Z,95.89
2023-05-19T02:25:10.632Z,96.21
2023-05-19T02:27:40.471Z,96.69
2023-05-19T02:30:10.257Z,96.81
2023-05-19T02:32:40.158Z,97.17
2023-05-19T02:35:09.100Z,96.97
2023-05-19T02:37:37.262Z,96.83
2023-05-19T02:40:07.125Z,97.22
2023-05-19T02:42:37.743Z,96.96
2023-05-19T02:45:07.310Z,98.20
2023-05-19T02:47:38.984Z,98.43
2023-05-19T02:50:09.220Z,98.54
2023-05-19T02:52:37.350Z,98.39
2023-05-19T02:55:06.649Z,98.42
2023-05-19T02:57:36.416Z,98.67
2023-05-19T03:00:08.485Z,98.49
2023-05-19T03:02:37.563Z,98.82
2023-05-19T03:05:08.789Z,99.29
2023-05-19T03:07:39.662Z,99.62
2023-05-19T03:10:09.272Z,99.11
2023-05-19T03:12:37.648Z,99.10
2023-05-19T03:15:07.085Z,99.16
2023-05-19T03:17:36.502Z,99.79
2023-05-19T03:20:06.388Z,100.00
2023-05-19T03:22:38.109Z,100.00
2023-05-19T03:25:09.398Z,100.00
2023-05-19T03:27:37.513Z,100.00
2023-05-19T03:30:09.795Z,100.00
2023-05-19T03:32:52.050Z,100.00
2023-05-19T03:35:22.881Z,100.00
2023-05-19T03:37:55.145Z,100.00
2023-05-19T03:40:23.671Z,100.00
2023-05-19T03:42:56.815Z,100.00
2023-05-19T03:45:25.323Z,100.00
2023-05-19T03:47:54.333Z,100.00
2023-05-19T03:50:45.111Z,100.00
2023-05-19T03:53:19.385Z,100.00
2023-05-19T03:55:48.712Z,100.00
2023-05-19T03:58:17.223Z,100.00
2023-05-19T04:00:47.607Z,100.00
2023-05-19T04:03:15.800Z,100.00
2023-05-19T04:05:46.775Z,100.00
2023-05-19T04:08:16.406Z,100.00
2023-05-19T04:10:46.010Z,100.00
2023-05-19T04:13:16.148Z,99.59
2023-05-19T04:15:44.537Z,99.22
2023-05-19T04:18:12.732Z,98.90
2023-05-19T04:20:41.744Z,98.95
2023-05-19T04:23:10.647Z,99.14
2023-05-19T04:25:40.834Z,98.64
2023-05-19T04:28:13.846Z,98.87
2023-05-19T04:30:42.582Z,98.44
2023-05-19T04:33:13.123Z,98.37
2023-05-19T04:35:44.666Z,97.80
2023-05-19T04:38:18.758Z,97.98
2023-05-19T04:40:50.496Z,97.13
2023-05-19T04:43:22.306Z,96.74
2023-05-19T04:45:52.040Z,96.68
2023-05-19T04:48:23.151Z,96.64
2023-05-19T04:50:53.370Z,96.37
2023-05-19T04:53:22.675Z,95.65
2023-05-19T04:55:53.180Z,94.71
2023-05-19T04:58:25.895Z,94.01
2023-05-19T05:00:55.893Z,93.70
2023-05-19T05:03:24.367Z,92.85
2023-05-19T05:05:55.017Z,91.84
2023-05-19T05:08:23.879Z,90.43
2023-05-19T05:10:56.423Z,89.42
2023-05-19T05:13:27.410Z,87.33
2023-05-19T05:15:56.849Z,85.11
2023-05-19T05:18:25.619Z,84.06
2023-05-19T05:20:57.124Z,82.67
2023-05-19T05:23:26.790Z,82.98
2023-05-19T05:25:55.475Z,82.91
2023-05-19T05:28:23.828Z,82.26
2023-05-19T05:30:56.303Z,82.53
2023-05-19T05:33:25.309Z,81.92
2023-05-19T05:35:53.793Z,82.01
2023-05-19T05:38:21.851Z,82.33
2023-05-19T05:40:50.126Z,82.76
2023-05-19T05:43:19.006Z,83.18
2023-05-19T05:45:54.938Z,83.60
2023-05-19T05:48:23.682Z,82.90
2023-05-19T05:50:53.368Z,82.43
2023-05-19T05:53:27.247Z,81.79
2023-05-19T05:55:59.538Z,81.02
2023-05-19T06:00:07.489Z,79.67
2023-05-19T06:02:44.695Z,78.54
2023-05-19T06:05:16.799Z,76.90
2023-05-19T06:07:48.889Z,74.48
2023-05-19T06:10:23.364Z,72.28
2023-05-19T06:12:51.739Z,71.82
2023-05-19T06:15:22.257Z,71.06
2023-05-19T06:18:08.014Z,71.93
2023-05-19T06:20:36.381Z,71.36
2023-05-19T06:23:04.559Z,72.04
2023-05-19T06:25:33.529Z,74.33
2023-05-19T06:28:02.163Z,74.89
2023-05-19T06:30:31.918Z,74.08
2023-05-19T06:33:21.644Z,73.46
2023-05-19T06:35:50.530Z,72.87
2023-05-19T06:38:19.261Z,72.64
2023-05-19T06:40:47.613Z,72.16
2023-05-19T06:43:15.824Z,69.63
2023-05-19T06:45:59.220Z,65.11
2023-05-19T06:48:27.675Z,62.79
2023-05-19T06:50:56.061Z,59.32
2023-05-19T06:53:25.536Z,57.07
2023-05-19T06:55:59.960Z,55.50
2023-05-19T06:58:32.122Z,52.45
2023-05-19T07:01:03.725Z,51.19
2023-05-19T07:03:37.376Z,48.92
2023-05-19T07:06:08.093Z,48.09
2023-05-19T07:08:38.332Z,46.81
2023-05-19T07:11:12.390Z,46.81
2023-05-19T07:13:41.858Z,46.12
2023-05-19T07:16:12.159Z,45.73
2023-05-19T07:18:40.393Z,45.28
2023-05-19T07:21:11.791Z,45.75
2023-05-19T07:23:40.136Z,46.89
2023-05-19T07:26:08.368Z,46.12
2023-05-19T07:28:38.160Z,43.57
2023-05-19T07:31:07.344Z,43.39
2023-05-19T07:33:39.198Z,41.94
2023-05-19T07:36:07.476Z,42.54
2023-05-19T07:38:35.921Z,42.32
2023-05-19T07:41:04.311Z,42.26
2023-05-19T07:43:32.630Z,41.49
2023-05-19T07:46:01.004Z,39.33
2023-05-19T07:48:29.628Z,40.36
2023-05-19T07:50:59.193Z,40.05
2023-05-19T07:53:28.074Z,40.37
2023-05-19T07:55:58.393Z,40.28
2023-05-19T07:58:27.802Z,39.97
2023-05-19T08:00:59.521Z,39.08
2023-05-19T08:03:28.172Z,38.12
2023-05-19T08:05:56.511Z,37.10
2023-05-19T08:08:26.936Z,36.79
2023-05-19T08:10:57.498Z,35.77
2023-05-19T08:13:25.717Z,36.82
2023-05-19T08:15:54.939Z,36.43
2023-05-19T08:18:23.429Z,36.30
2023-05-19T08:20:51.645Z,36.55
2023-05-19T08:23:19.838Z,36.09
2023-05-19T08:25:52.415Z,35.03
2023-05-19T08:28:20.652Z,32.96
2023-05-19T08:30:48.808Z,34.47
2023-05-19T08:33:17.679Z,35.29
2023-05-19T08:35:48.920Z,35.45
2023-05-19T08:38:19.687Z,37.35
2023-05-19T08:40:51.641Z,37.05
2023-05-19T08:43:25.326Z,36.97
2023-05-19T08:45:54.415Z,35.40
2023-05-19T08:48:23.721Z,34.38
2023-05-19T08:51:02.574Z,33.26
2023-05-19T08:53:37.963Z,32.92
2023-05-19T08:56:12.938Z,32.23
2023-05-19T08:58:43.833Z,32.92
2023-05-19T09:01:14.701Z,32.86
2023-05-19T09:03:44.305Z,33.74
2023-05-19T09:06:13.602Z,34.23
2023-05-19T09:08:42.777Z,33.81
2023-05-19T09:11:12.989Z,32.19
2023-05-19T09:13:41.350Z,32.55
2023-05-19T09:16:09.638Z,32.36
2023-05-19T09:18:41.320Z,31.59
2023-05-19T09:21:11.228Z,32.26
2023-05-19T09:23:39.528Z,31.04
2023-05-19T09:26:10.782Z,31.22
2023-05-19T09:28:43.091Z,31.33
2023-05-19T09:31:12.173Z,31.46
2023-05-19T09:33:45.202Z,31.54
2023-05-19T09:36:15.125Z,31.67
2023-05-19T09:38:43.239Z,30.32
2023-05-19T09:41:11.811Z,29.40
2023-05-19T09:43:40.165Z,28.30
2023-05-19T09:46:13.811Z,29.18
2023-05-19T09:48:43.943Z,28.38
2023-05-19T09:51:12.993Z,29.87
2023-05-19T09:53:44.898Z,30.97
2023-05-19T09:56:15.466Z,30.98
2023-05-19T09:58:44.054Z,30.43
2023-05-19T10:01:13.807Z,29.67
2023-05-19T10:03:43.741Z,30.83
2023-05-19T10:06:12.616Z,31.11
2023-05-19T10:08:43.781Z,32.63
2023-05-19T10:11:13.259Z,32.57
2023-05-19T10:13:46.540Z,31.68
2023-05-19T10:16:17.504Z,32.55
2023-05-19T10:18:51.133Z,33.04
2023-05-19T10:21:19.652Z,32.64
2023-05-19T10:23:47.908Z,31.86
2023-05-19T10:26:17.077Z,30.76
2023-05-19T10:28:46.631Z,30.28
2023-05-19T10:31:23.285Z,30.74
2023-05-19T10:34:06.563Z,31.49
2023-05-19T10:36:45.635Z,32.75
2023-05-19T10:39:18.988Z,32.00
2023-05-19T10:41:59.714Z,32.42
2023-05-19T10:44:40.936Z,32.49
2023-05-19T10:47:12.606Z,32.78
2023-05-19T10:49:41.030Z,33.71
2023-05-19T10:52:21.581Z,33.33
2023-05-19T10:54:50.011Z,32.73
2023-05-19T10:57:26.673Z,33.25
2023-05-19T11:01:11.062Z,31.91
2023-05-19T11:03:50.012Z,31.21
2023-05-19T11:06:19.765Z,32.01
2023-05-19T11:08:49.140Z,30.96
2023-05-19T11:11:18.051Z,31.08
2023-05-19T11:13:49.020Z,31.19
2023-05-19T11:16:27.575Z,30.55
2023-05-19T11:18:56.468Z,30.79
2023-05-19T11:21:24.986Z,29.50
2023-05-19T11:23:53.963Z,30.74
2023-05-19T11:26:47.592Z,31.31
2023-05-19T11:29:18.360Z,31.57
2023-05-19T11:31:49.788Z,30.79
2023-05-19T11:34:21.988Z,30.54
2023-05-19T11:36:53.943Z,32.22
2023-05-19T11:39:26.896Z,32.77
2023-05-19T11:41:56.742Z,33.54
2023-05-19T11:44:25.107Z,33.08
2023-05-19T11:46:55.693Z,34.10
2023-05-19T11:49:28.572Z,34.35
2023-05-19T11:51:57.025Z,35.01
2023-05-19T11:54:31.543Z,34.55
2023-05-19T11:57:02.854Z,34.26
2023-05-19T11:59:33.464Z,33.92
2023-05-19T12:02:19.111Z,33.25
2023-05-19T12:04:50.394Z,32.29
2023-05-19T12:07:20.580Z,32.76
2023-05-19T12:09:49.263Z,33.62
2023-05-19T12:12:18.786Z,33.81
2023-05-19T12:14:51.015Z,33.74
2023-05-19T12:17:23.902Z,33.89
2023-05-19T12:19:52.867Z,33.09
2023-05-19T12:22:21.458Z,32.19
2023-05-19T12:24:52.906Z,32.93
2023-05-19T12:27:26.299Z,33.30
2023-05-19T12:29:57.243Z,33.98
2023-05-19T12:32:27.845Z,33.51
2023-05-19T12:34:58.068Z,34.20
2023-05-19T12:37:30.067Z,34.36
2023-05-19T12:39:58.650Z,34.34
2023-05-19T12:42:31.496Z,33.72
2023-05-19T12:45:02.953Z,34.52
2023-05-19T12:47:36.395Z,35.43
2023-05-19T12:50:06.478Z,35.04
2023-05-19T12:52:43.055Z,34.68
2023-05-19T12:55:12.451Z,34.48
2023-05-19T12:57:42.125Z,35.26
2023-05-19T13:00:17.690Z,36.10
2023-05-19T13:03:01.966Z,35.95
2023-05-19T13:05:33.849Z,36.56
2023-05-19T13:08:07.680Z,36.62
2023-05-19T13:10:36.963Z,35.70
2023-05-19T13:13:05.946Z,34.58
2023-05-19T13:15:35.716Z,34.66
2023-05-19T13:18:06.841Z,34.68
2023-05-19T13:20:36.345Z,35.67
2023-05-19T13:23:07.268Z,36.41
2023-05-19T13:25:35.892Z,35.76
2023-05-19T13:28:05.865Z,36.84
2023-05-19T13:30:38.031Z,36.96
2023-05-19T13:33:08.125Z,36.73
2023-05-19T13:35:38.270Z,37.06
2023-05-19T13:38:07.860Z,37.10
2023-05-19T13:40:36.857Z,37.34
2023-05-19T13:43:06.206Z,37.92
2023-05-19T13:45:34.653Z,38.59
2023-05-19T13:48:03.365Z,39.43
2023-05-19T13:50:34.373Z,39.60
2023-05-19T13:53:03.597Z,39.22
2023-05-19T13:55:31.703Z,39.59
2023-05-19T13:58:00.056Z,40.04
2023-05-19T14:00:28.493Z,40.49
2023-05-19T14:02:56.715Z,41.72
2023-05-19T14:05:25.127Z,41.22
2023-05-19T14:07:55.208Z,40.78
2023-05-19T14:10:23.798Z,40.56
2023-05-19T14:15:27.131Z,40.43
2023-05-19T14:17:55.335Z,40.73
2023-05-19T14:20:23.484Z,40.15
2023-05-19T14:22:51.761Z,40.73
2023-05-19T14:25:23.834Z,40.61
2023-05-19T14:27:52.083Z,41.27
2023-05-19T14:30:20.293Z,40.91
2023-05-19T14:32:48.593Z,40.59
2023-05-19T14:35:16.884Z,41.28
2023-05-19T14:37:44.961Z,41.85
2023-05-19T14:40:14.245Z,41.94
2023-05-19T14:42:45.878Z,42.28
2023-05-19T14:45:14.223Z,42.63
2023-05-19T14:47:42.513Z,42.81
2023-05-19T14:50:12.983Z,42.54
2023-05-19T14:52:41.236Z,42.53
2023-05-19T14:55:12.199Z,42.34
2023-05-19T14:57:40.514Z,42.14
2023-05-19T15:00:11.316Z,41.72
2023-05-19T15:02:39.661Z,42.05
2023-05-19T15:05:08.290Z,42.01
2023-05-19T15:07:36.955Z,41.89
2023-05-19T15:10:05.940Z,42.50
2023-05-19T15:12:34.039Z,42.79
2023-05-19T15:15:02.372Z,42.46
2023-05-19T15:17:35.077Z,42.86
2023-05-19T15:20:03.333Z,43.14
2023-05-19T15:22:34.187Z,43.27
2023-05-19T15:25:02.279Z,42.66
2023-05-19T15:27:30.492Z,42.92
2023-05-19T15:29:59.451Z,41.92
2023-05-19T15:32:27.652Z,42.04
2023-05-19T15:34:59.657Z,41.60
2023-05-19T15:37:27.785Z,41.24
2023-05-19T15:39:56.080Z,41.77
2023-05-19T15:42:24.398Z,41.59
2023-05-19T15:44:55.175Z,42.34
2023-05-19T15:47:26.464Z,41.97
2023-05-19T15:49:55.392Z,42.21
2023-05-19T15:52:25.014Z,42.82
2023-05-19T15:54:59.148Z,43.00
2023-05-19T15:57:29.787Z,43.20
2023-05-19T16:02:05.895Z,43.41
2023-05-19T16:04:34.428Z,43.90
2023-05-19T16:07:02.562Z,43.83
2023-05-19T16:09:30.858Z,43.93
2023-05-19T16:11:59.028Z,43.41
2023-05-19T16:14:31.112Z,43.02
2023-05-19T16:16:59.905Z,43.42
2023-05-19T16:19:29.503Z,43.56
2023-05-19T16:21:57.936Z,42.55
2023-05-19T16:24:26.187Z,42.86
2023-05-19T16:26:54.465Z,42.88
2023-05-19T16:29:25.168Z,42.05
2023-05-19T16:31:53.332Z,41.93
2023-05-19T16:34:21.466Z,41.66
2023-05-19T16:36:51.082Z,41.43
2023-05-19T16:39:21.778Z,41.65
2023-05-19T16:41:53.842Z,41.95
2023-05-19T16:44:24.670Z,42.01
2023-05-19T16:46:53.353Z,41.77
2023-05-19T16:49:21.489Z,41.81
2023-05-19T16:51:53.044Z,41.33
2023-05-19T16:54:22.181Z,41.21
2023-05-19T16:56:51.215Z,42.20
2023-05-19T16:59:21.610Z,41.99
2023-05-19T17:01:50.192Z,42.26
2023-05-19T17:04:18.413Z,42.34
2023-05-19T17:06:47.101Z,42.37
2023-05-19T17:09:17.082Z,42.65
2023-05-19T17:11:45.315Z,42.71
2023-05-19T17:14:16.276Z,42.94
2023-05-19T17:16:44.506Z,42.97
2023-05-19T17:19:13.579Z,43.15
2023-05-19T17:21:44.386Z,43.53
2023-05-19T17:24:12.471Z,43.61
2023-05-19T17:26:42.065Z,43.61
2023-05-19T17:29:10.615Z,43.34
2023-05-19T17:31:38.803Z,43.43
2023-05-19T17:34:06.966Z,43.88
2023-05-19T17:36:35.269Z,44.12
2023-05-19T17:39:03.868Z,44.17
2023-05-19T17:41:32.052Z,43.96
2023-05-19T17:44:02.093Z,43.89
2023-05-19T17:46:34.645Z,44.14
2023-05-19T17:49:02.925Z,44.18
2023-05-19T17:51:31.841Z,44.25
2023-05-19T17:54:00.615Z,44.62
2023-05-19T17:56:34.389Z,44.98
2023-05-19T17:59:04.601Z,44.55
2023-05-19T18:01:36.299Z,45.11
2023-05-19T18:04:05.202Z,45.21
2023-05-19T18:06:33.734Z,44.83
2023-05-19T18:09:08.082Z,45.09
2023-05-19T18:11:36.496Z,45.13
2023-05-19T18:14:08.717Z,45.25
2023-05-19T18:16:36.916Z,45.56
2023-05-19T18:19:05.121Z,45.94
2023-05-19T18:21:33.852Z,46.14
2023-05-19T18:24:05.457Z,46.57
2023-05-19T18:26:34.160Z,46.74
2023-05-19T18:29:05.102Z,47.09
2023-05-19T18:31:37.054Z,47.29
2023-05-19T18:34:05.420Z,47.47
2023-05-19T18:36:34.966Z,47.49
2023-05-19T18:39:04.704Z,47.72
2023-05-19T18:41:33.264Z,47.52
2023-05-19T18:44:01.905Z,47.80
2023-05-19T18:46:30.301Z,47.71
2023-05-19T18:48:59.786Z,47.69
2023-05-19T18:51:27.907Z,48.11
2023-05-19T18:53:56.235Z,47.92
2023-05-19T18:56:26.141Z,48.20
2023-05-19T18:58:56.852Z,48.10
2023-05-19T19:01:27.598Z,48.12
2023-05-19T19:03:59.461Z,48.27
2023-05-19T19:06:27.617Z,48.62
2023-05-19T19:08:55.972Z,48.54
2023-05-19T19:11:24.285Z,48.67
2023-05-19T19:13:55.397Z,48.75
2023-05-19T19:16:26.420Z,48.55
2023-05-19T19:18:54.843Z,48.80
2023-05-19T19:21:24.485Z,49.01
2023-05-19T19:23:53.853Z,49.00
2023-05-19T19:26:25.093Z,49.20
2023-05-19T19:28:53.701Z,49.21
2023-05-19T19:31:21.975Z,49.12
2023-05-19T19:33:50.462Z,49.11
2023-05-19T19:36:18.740Z,49.59
2023-05-19T19:38:48.737Z,49.55
2023-05-19T19:41:20.125Z,49.67
2023-05-19T19:43:48.420Z,49.54
2023-05-19T19:46:22.221Z,49.52
2023-05-19T19:48:57.820Z,49.59
2023-05-19T19:51:26.465Z,49.85
2023-05-19T19:53:56.181Z,49.87
2023-05-19T19:56:27.795Z,50.03
2023-05-19T19:58:59.205Z,49.91
2023-05-19T20:01:30.356Z,50.31
2023-05-19T20:03:59.042Z,50.13
2023-05-19T20:06:27.330Z,49.63
2023-05-19T20:08:57.929Z,49.87
2023-05-19T20:11:26.812Z,49.55
2023-05-19T20:13:55.312Z,49.64
2023-05-19T20:16:24.216Z,49.83
2023-05-19T20:18:53.113Z,49.89
2023-05-19T20:21:21.304Z,49.55
2023-05-19T20:23:52.116Z,49.72
2023-05-19T20:26:22.836Z,49.67
2023-05-19T20:28:50.974Z,49.58
2023-05-19T20:31:19.416Z,49.35
2023-05-19T20:33:47.687Z,49.49
2023-05-19T20:36:15.922Z,49.43
2023-05-19T20:38:44.795Z,49.58
2023-05-19T20:41:13.546Z,49.52
2023-05-19T20:43:45.405Z,49.44
2023-05-19T20:46:14.371Z,49.36
2023-05-19T20:48:42.603Z,49.46
2023-05-19T20:51:11.081Z,49.39
2023-05-19T20:53:39.193Z,49.52
2023-05-19T20:56:10.745Z,49.35
2023-05-19T20:58:41.595Z,49.83
2023-05-19T21:03:06.409Z,50.05
2023-05-19T21:05:35.189Z,50.32
2023-05-19T21:08:03.745Z,50.50
2023-05-19T21:10:32.485Z,50.58
2023-05-19T21:13:03.574Z,50.90
2023-05-19T21:15:32.224Z,51.02
2023-05-19T21:18:00.485Z,50.99
2023-05-19T21:20:30.846Z,51.21
2023-05-19T21:23:01.832Z,51.63
2023-05-19T21:25:31.008Z,51.59
2023-05-19T21:28:18.561Z,51.69
2023-05-19T21:30:49.494Z,51.99
2023-05-19T21:33:18.024Z,52.15
2023-05-19T21:35:50.111Z,52.78
2023-05-19T21:40:51.021Z,52.63
2023-05-19T21:43:20.045Z,53.00
2023-05-19T21:45:48.377Z,53.06
2023-05-19T21:48:17.085Z,53.52
2023-05-19T21:50:45.537Z,53.42
2023-05-19T21:53:15.063Z,53.77
2023-05-19T21:55:45.353Z,54.12
2023-05-19T21:58:13.668Z,54.30
2023-05-19T22:00:43.016Z,54.58
2023-05-19T22:03:12.414Z,54.67
2023-05-19T22:05:41.447Z,55.03
2023-05-19T22:08:11.255Z,55.36
2023-05-19T22:10:43.376Z,55.63
2023-05-19T22:13:12.023Z,55.90
2023-05-19T22:15:40.430Z,56.22
2023-05-19T22:18:09.196Z,56.48
2023-05-19T22:20:38.119Z,56.81
2023-05-19T22:23:06.410Z,56.90
2023-05-19T22:25:37.209Z,57.27
2023-05-19T22:28:08.391Z,57.48
2023-05-19T22:30:41.095Z,57.68
2023-05-19T22:33:12.677Z,57.82
2023-05-19T22:35:40.877Z,58.15
2023-05-19T22:38:10.689Z,58.83
2023-05-19T22:40:40.151Z,59.03
2023-05-19T22:43:09.690Z,59.01
2023-05-19T22:45:38.499Z,59.25
2023-05-19T22:48:10.340Z,59.78
2023-05-19T22:50:40.817Z,60.07
2023-05-19T22:53:09.673Z,60.34
2023-05-19T22:55:38.654Z,60.87
2023-05-19T22:58:07.690Z,61.11
2023-05-19T23:00:40.074Z,61.40
2023-05-19T23:03:08.278Z,61.64
2023-05-19T23:05:36.523Z,62.02
2023-05-19T23:08:05.732Z,62.50
2023-05-19T23:10:34.094Z,62.93
2023-05-19T23:13:05.214Z,63.31
2023-05-19T23:15:33.664Z,63.53
2023-05-19T23:18:07.578Z,63.87
2023-05-19T23:20:36.420Z,64.21
2023-05-19T23:23:05.363Z,64.75
2023-05-19T23:25:33.785Z,64.77
2023-05-19T23:28:02.518Z,64.88
2023-05-19T23:30:32.239Z,65.38
2023-05-19T23:33:03.589Z,65.71
2023-05-19T23:35:34.019Z,65.79
2023-05-19T23:38:02.394Z,66.13
2023-05-19T23:40:30.636Z,66.31
2023-05-19T23:42:59.075Z,66.87
2023-05-19T23:45:27.235Z,66.70
2023-05-19T23:47:55.807Z,67.55
2023-05-19T23:50:24.617Z,67.73
2023-05-19T23:52:54.193Z,68.13
2023-05-19T23:55:23.436Z,68.69
2023-05-19T23:57:54.681Z,69.30
